createdAt,value
2022-12-09T00:00:42.633Z,75.99
2022-12-09T00:01:42.257Z,76.46
2022-12-09T00:02:42.908Z,76.46
2022-12-09T00:03:42.883Z,76.46
2022-12-09T00:04:42.698Z,76.18
2022-12-09T00:05:42.454Z,76.46
2022-12-09T00:06:42.684Z,76.65
2022-12-09T00:07:42.564Z,76.42
2022-12-09T00:08:42.555Z,76.18
2022-12-09T00:09:42.400Z,76.27
2022-12-09T00:10:42.386Z,76.27
2022-12-09T00:11:42.758Z,75.99
2022-12-09T00:12:42.618Z,76.27
2022-12-09T00:13:42.662Z,76.27
2022-12-09T00:14:42.824Z,76.46
2022-12-09T00:15:43.206Z,76.46
2022-12-09T00:16:43.026Z,76.18
2022-12-09T00:17:42.510Z,76.27
2022-12-09T00:18:42.818Z,76.27
2022-12-09T00:19:42.790Z,76.27
2022-12-09T00:20:42.637Z,76.27
2022-12-09T00:21:42.552Z,76.32
2022-12-09T00:22:42.626Z,76.27
2022-12-09T00:23:42.889Z,76.23
2022-12-09T00:24:42.865Z,76.27
2022-12-09T00:25:42.613Z,76.27
2022-12-09T00:26:42.619Z,76.27
2022-12-09T00:27:42.868Z,76.27
2022-12-09T00:28:42.685Z,76.23
2022-12-09T00:29:43.150Z,76.37
2022-12-09T00:30:42.839Z,75.95
2022-12-09T00:31:42.890Z,76.08
2022-12-09T00:32:43.057Z,76.46
2022-12-09T00:33:42.947Z,76.27
2022-12-09T00:34:42.834Z,76.27
2022-12-09T00:35:42.792Z,76.23
2022-12-09T00:36:42.961Z,76.27
2022-12-09T00:37:42.809Z,76.27
2022-12-09T00:38:43.072Z,76.27
2022-12-09T00:39:43.022Z,76.08
2022-12-09T00:40:42.941Z,76.23
2022-12-09T00:41:43.048Z,76.23
2022-12-09T00:42:42.624Z,76.56
2022-12-09T00:43:42.948Z,76.27
2022-12-09T00:44:43.103Z,76.27
2022-12-09T00:45:43.435Z,76.27
2022-12-09T00:46:43.378Z,76.27
2022-12-09T00:47:43.309Z,76.27
2022-12-09T00:48:43.175Z,76.27
2022-12-09T00:49:43.762Z,76.08
2022-12-09T00:50:43.282Z,76.32
2022-12-09T00:51:43.106Z,76.37
2022-12-09T00:52:43.125Z,76.32
2022-12-09T00:53:43.159Z,76.52
2022-12-09T00:54:43.533Z,76.52
2022-12-09T00:55:43.357Z,76.27
2022-12-09T00:56:43.194Z,76.23
2022-12-09T00:57:42.822Z,76.23
2022-12-09T00:58:43.346Z,76.23
2022-12-09T00:59:43.039Z,76.23
2022-12-09T01:00:43.515Z,76.32
2022-12-09T01:01:43.411Z,76.23
2022-12-09T01:02:43.502Z,76.23
2022-12-09T01:03:43.474Z,76.04
2022-12-09T01:04:43.930Z,76.42
2022-12-09T01:05:43.435Z,76.32
2022-12-09T01:06:43.209Z,76.52
2022-12-09T01:07:43.169Z,76.32
2022-12-09T01:08:45.845Z,76.42
2022-12-09T01:09:43.295Z,76.52
2022-12-09T01:10:43.275Z,76.52
2022-12-09T01:11:43.834Z,76.23
2022-12-09T01:12:43.463Z,76.23
2022-12-09T01:13:43.380Z,76.23
2022-12-09T01:14:43.262Z,76.23
2022-12-09T01:15:43.816Z,76.32
2022-12-09T01:16:43.729Z,76.23
2022-12-09T01:17:44.028Z,76.23
2022-12-09T01:18:43.420Z,76.23
2022-12-09T01:19:43.432Z,76.23
2022-12-09T01:20:43.326Z,76.42
2022-12-09T01:21:43.227Z,76.23
2022-12-09T01:22:43.500Z,76.23
2022-12-09T01:23:43.810Z,76.23
2022-12-09T01:24:43.874Z,76.23
2022-12-09T01:25:43.582Z,76.23
2022-12-09T01:26:43.649Z,76.23
2022-12-09T01:27:43.636Z,76.14
2022-12-09T01:28:43.633Z,76.23
2022-12-09T01:29:43.820Z,76.32
2022-12-09T01:30:43.685Z,76.42
2022-12-09T01:31:44.398Z,76.14
2022-12-09T01:32:44.120Z,76.42
2022-12-09T01:33:44.077Z,76.42
2022-12-09T01:34:43.363Z,76.42
2022-12-09T01:35:43.971Z,76.42
2022-12-09T01:36:44.078Z,76.61
2022-12-09T01:37:43.949Z,76.14
2022-12-09T01:38:43.777Z,76.42
2022-12-09T01:39:43.811Z,76.42
2022-12-09T01:40:43.739Z,76.42
2022-12-09T01:41:44.132Z,76.42
2022-12-09T01:42:43.516Z,76.42
2022-12-09T01:43:43.946Z,76.61
2022-12-09T01:44:43.999Z,76.42
2022-12-09T01:45:44.164Z,76.42
2022-12-09T01:46:43.806Z,76.42
2022-12-09T01:47:44.402Z,76.42
2022-12-09T01:48:44.090Z,76.32
2022-12-09T01:49:44.366Z,75.95
2022-12-09T01:50:43.999Z,76.42
2022-12-09T01:51:44.199Z,76.23
2022-12-09T01:52:43.660Z,76.61
2022-12-09T01:53:44.073Z,76.42
2022-12-09T01:54:44.295Z,76.42
2022-12-09T01:55:43.948Z,76.04
2022-12-09T01:56:44.078Z,76.04
2022-12-09T01:57:43.856Z,76.42
2022-12-09T01:58:43.835Z,76.23
2022-12-09T01:59:44.182Z,76.04
2022-12-09T02:00:44.144Z,76.42
2022-12-09T02:01:44.342Z,76.42
2022-12-09T02:02:44.566Z,76.42
2022-12-09T02:03:44.743Z,76.61
2022-12-09T02:04:44.603Z,76.42
2022-12-09T02:05:44.096Z,76.23
2022-12-09T02:06:44.120Z,76.04
2022-12-09T02:07:44.420Z,76.42
2022-12-09T02:08:44.722Z,76.42
2022-12-09T02:09:44.482Z,76.32
2022-12-09T02:10:44.170Z,76.04
2022-12-09T02:11:44.339Z,76.04
2022-12-09T02:12:43.924Z,76.04
2022-12-09T02:13:44.463Z,76.23
2022-12-09T02:14:44.736Z,76.23
2022-12-09T02:15:44.423Z,76.42
2022-12-09T02:16:44.901Z,76.32
2022-12-09T02:17:44.622Z,76.04
2022-12-09T02:18:44.584Z,76.42
2022-12-09T02:19:44.491Z,76.42
2022-12-09T02:20:44.733Z,76.23
2022-12-09T02:21:44.692Z,76.23
2022-12-09T02:22:44.799Z,76.32
2022-12-09T02:23:44.354Z,75.95
2022-12-09T02:24:44.441Z,76.23
2022-12-09T02:25:44.559Z,76.42
2022-12-09T02:26:44.596Z,76.61
2022-12-09T02:27:44.540Z,76.42
2022-12-09T02:28:44.583Z,76.32
2022-12-09T02:29:44.732Z,76.42
2022-12-09T02:30:44.752Z,76.23
2022-12-09T02:31:44.658Z,76.32
2022-12-09T02:32:44.761Z,76.61
2022-12-09T02:33:44.557Z,76.04
2022-12-09T02:34:44.845Z,76.52
2022-12-09T02:35:45.070Z,76.42
2022-12-09T02:36:44.886Z,76.42
2022-12-09T02:37:44.746Z,76.42
2022-12-09T02:38:44.496Z,76.61
2022-12-09T02:39:44.626Z,76.23
2022-12-09T02:40:44.462Z,76.04
2022-12-09T02:41:44.870Z,76.32
2022-12-09T02:42:44.845Z,76.23
2022-12-09T02:43:52.156Z,76.42
2022-12-09T02:44:44.638Z,76.42
2022-12-09T02:45:44.854Z,76.42
2022-12-09T02:46:45.056Z,76.42
2022-12-09T02:47:44.847Z,76.42
2022-12-09T02:48:45.259Z,76.32
2022-12-09T02:49:45.034Z,76.61
2022-12-09T02:50:45.084Z,76.42
2022-12-09T02:51:45.149Z,76.42
2022-12-09T02:52:44.802Z,76.61
2022-12-09T02:53:45.083Z,76.42
2022-12-09T02:54:45.165Z,76.42
2022-12-09T02:55:45.514Z,76.14
2022-12-09T02:56:44.870Z,76.52
2022-12-09T02:57:45.159Z,76.23
2022-12-09T02:58:45.215Z,76.42
2022-12-09T02:59:45.078Z,76.32
2022-12-09T03:00:44.959Z,76.32
2022-12-09T03:01:45.608Z,76.23
2022-12-09T03:02:45.818Z,76.42
2022-12-09T03:03:45.512Z,76.52
2022-12-09T03:04:45.248Z,76.42
2022-12-09T03:05:44.988Z,76.42
2022-12-09T03:06:45.113Z,76.42
2022-12-09T03:07:45.493Z,76.42
2022-12-09T03:08:45.808Z,76.42
2022-12-09T03:09:45.806Z,76.42
2022-12-09T03:10:45.586Z,76.42
2022-12-09T03:11:45.119Z,76.61
2022-12-09T03:12:45.022Z,76.61
2022-12-09T03:13:45.103Z,76.42
2022-12-09T03:14:45.353Z,76.42
2022-12-09T03:15:45.424Z,76.42
2022-12-09T03:16:45.047Z,76.42
2022-12-09T03:17:45.344Z,76.32
2022-12-09T03:18:45.230Z,76.04
2022-12-09T03:19:44.881Z,76.42
2022-12-09T03:20:45.341Z,76.42
2022-12-09T03:21:45.382Z,76.32
2022-12-09T03:22:45.188Z,76.23
2022-12-09T03:23:45.605Z,76.52
2022-12-09T03:24:44.992Z,76.32
2022-12-09T03:25:45.541Z,76.42
2022-12-09T03:26:45.503Z,76.42
2022-12-09T03:27:45.581Z,76.42
2022-12-09T03:28:45.493Z,76.32
2022-12-09T03:29:45.342Z,76.32
2022-12-09T03:30:45.403Z,76.32
2022-12-09T03:31:45.208Z,76.42
2022-12-09T03:32:45.934Z,76.42
2022-12-09T03:33:46.084Z,76.42
2022-12-09T03:34:45.591Z,76.52
2022-12-09T03:35:45.745Z,76.32
2022-12-09T03:36:45.433Z,76.32
2022-12-09T03:37:45.878Z,76.04
2022-12-09T03:38:45.724Z,76.04
2022-12-09T03:39:45.678Z,76.42
2022-12-09T03:40:45.857Z,76.61
2022-12-09T03:41:45.868Z,76.32
2022-12-09T03:42:45.472Z,76.42
2022-12-09T03:43:45.798Z,76.23
2022-12-09T03:44:45.773Z,76.42
2022-12-09T03:45:45.688Z,76.42
2022-12-09T03:46:46.064Z,76.04
2022-12-09T03:47:46.017Z,76.04
2022-12-09T03:48:45.959Z,76.04
2022-12-09T03:49:46.024Z,76.04
2022-12-09T03:50:45.634Z,76.04
2022-12-09T03:51:45.658Z,76.04
2022-12-09T03:52:45.878Z,76.14
2022-12-09T03:53:45.686Z,76.42
2022-12-09T03:54:45.985Z,76.04
2022-12-09T03:55:45.959Z,76.32
2022-12-09T03:56:46.188Z,76.04
2022-12-09T03:57:45.811Z,76.42
2022-12-09T03:58:45.859Z,76.42
2022-12-09T03:59:45.722Z,76.61
2022-12-09T04:00:46.416Z,76.14
2022-12-09T04:01:46.264Z,76.42
2022-12-09T04:02:46.222Z,76.61
2022-12-09T04:03:46.433Z,76.8
2022-12-09T04:04:46.143Z,76.42
2022-12-09T04:05:45.879Z,76.61
2022-12-09T04:06:46.363Z,76.61
2022-12-09T04:07:46.348Z,76.61
2022-12-09T04:08:46.422Z,76.61
2022-12-09T04:09:46.423Z,76.61
2022-12-09T04:10:46.042Z,76.71
2022-12-09T04:11:46.372Z,76.61
2022-12-09T04:12:46.771Z,76.61
2022-12-09T04:13:46.279Z,76.71
2022-12-09T04:14:45.984Z,76.61
2022-12-09T04:15:46.105Z,76.61
2022-12-09T04:16:46.096Z,76.8
2022-12-09T04:17:46.389Z,76.61
2022-12-09T04:18:46.631Z,76.23
2022-12-09T04:19:46.641Z,76.8
2022-12-09T04:20:46.543Z,76.71
2022-12-09T04:21:46.164Z,76.42
2022-12-09T04:22:46.422Z,76.9
2022-12-09T04:23:46.265Z,76.61
2022-12-09T04:24:46.499Z,76.52
2022-12-09T04:25:46.242Z,76.9
2022-12-09T04:26:45.957Z,76.9
2022-12-09T04:27:46.153Z,76.52
2022-12-09T04:28:47.038Z,76.8
2022-12-09T04:29:46.540Z,76.42
2022-12-09T04:30:46.664Z,76.32
2022-12-09T04:31:46.396Z,76.42
2022-12-09T04:32:46.791Z,76.52
2022-12-09T04:33:46.502Z,76.42
2022-12-09T04:34:46.720Z,76.61
2022-12-09T04:35:46.263Z,76.52
2022-12-09T04:36:46.270Z,76.61
2022-12-09T04:37:46.204Z,76.52
2022-12-09T04:38:46.623Z,76.61
2022-12-09T04:39:46.387Z,76.52
2022-12-09T04:40:46.692Z,76.52
2022-12-09T04:41:46.429Z,76.9
2022-12-09T04:42:46.817Z,76.42
2022-12-09T04:43:46.423Z,76.52
2022-12-09T04:44:46.475Z,76.52
2022-12-09T04:45:46.690Z,76.9
2022-12-09T04:46:46.922Z,76.9
2022-12-09T04:47:46.624Z,76.8
2022-12-09T04:48:47.026Z,76.9
2022-12-09T04:49:46.573Z,76.52
2022-12-09T04:50:46.687Z,76.99
2022-12-09T04:51:46.514Z,76.52
2022-12-09T04:52:46.263Z,76.52
2022-12-09T04:53:47.079Z,76.61
2022-12-09T04:54:46.896Z,76.52
2022-12-09T04:55:46.739Z,76.99
2022-12-09T04:56:46.930Z,76.9
2022-12-09T04:57:46.754Z,76.52
2022-12-09T04:58:46.467Z,76.61
2022-12-09T04:59:46.598Z,76.52
2022-12-09T05:00:47.128Z,76.52
2022-12-09T05:01:47.158Z,76.71
2022-12-09T05:02:46.869Z,76.76
2022-12-09T05:03:47.068Z,76.71
2022-12-09T05:04:47.658Z,76.52
2022-12-09T05:05:47.182Z,76.8
2022-12-09T05:06:47.209Z,76.8
2022-12-09T05:07:47.537Z,76.52
2022-12-09T05:08:47.235Z,76.99
2022-12-09T05:09:47.279Z,76.61
2022-12-09T05:10:47.061Z,76.8
2022-12-09T05:11:46.880Z,76.52
2022-12-09T05:12:46.988Z,76.61
2022-12-09T05:13:47.362Z,76.61
2022-12-09T05:14:46.975Z,76.8
2022-12-09T05:15:47.120Z,76.61
2022-12-09T05:16:47.367Z,76.52
2022-12-09T05:17:47.599Z,76.8
2022-12-09T05:18:47.489Z,76.8
2022-12-09T05:19:47.403Z,76.52
2022-12-09T05:20:47.089Z,76.61
2022-12-09T05:21:47.562Z,76.52
2022-12-09T05:22:47.297Z,76.61
2022-12-09T05:23:47.257Z,76.9
2022-12-09T05:24:47.473Z,76.8
2022-12-09T05:25:47.011Z,76.99
2022-12-09T05:26:47.381Z,76.52
2022-12-09T05:27:47.183Z,76.9
2022-12-09T05:28:47.523Z,76.61
2022-12-09T05:29:47.602Z,76.9
2022-12-09T05:30:48.156Z,76.39
2022-12-09T05:31:47.190Z,76.61
2022-12-09T05:32:47.481Z,76.61
2022-12-09T05:33:47.834Z,76.48
2022-12-09T05:34:47.447Z,76.8
2022-12-09T05:35:55.254Z,76.42
2022-12-09T05:36:47.549Z,76.61
2022-12-09T05:37:47.510Z,76.76
2022-12-09T05:38:47.720Z,76.48
2022-12-09T05:39:47.619Z,76.52
2022-12-09T05:40:47.415Z,76.48
2022-12-09T05:41:47.965Z,76.52
2022-12-09T05:42:47.972Z,76.61
2022-12-09T05:43:47.739Z,76.61
2022-12-09T05:44:47.687Z,76.8
2022-12-09T05:45:47.459Z,76.67
2022-12-09T05:46:47.925Z,76.61
2022-12-09T05:47:47.803Z,76.42
2022-12-09T05:48:47.900Z,76.32
2022-12-09T05:49:48.364Z,76.61
2022-12-09T05:50:47.880Z,76.71
2022-12-09T05:51:47.831Z,76.61
2022-12-09T05:52:47.213Z,76.61
2022-12-09T05:53:47.574Z,76.57
2022-12-09T05:54:47.678Z,76.39
2022-12-09T05:55:48.033Z,76.2
2022-12-09T05:56:51.388Z,76.39
2022-12-09T05:57:47.642Z,76.57
2022-12-09T05:58:47.494Z,76.39
2022-12-09T05:59:47.658Z,76.2
2022-12-09T06:00:47.832Z,76.39
2022-12-09T06:01:47.690Z,76.39
2022-12-09T06:02:48.075Z,76.48
2022-12-09T06:03:48.295Z,76.29
2022-12-09T06:04:48.308Z,76.48
2022-12-09T06:05:48.780Z,76.39
2022-12-09T06:06:48.116Z,76.29
2022-12-09T06:07:48.330Z,76.57
2022-12-09T06:08:47.984Z,76.39
2022-12-09T06:09:48.055Z,76.57
2022-12-09T06:10:48.263Z,76.39
2022-12-09T06:11:47.986Z,76.39
2022-12-09T06:12:47.808Z,76.39
2022-12-09T06:13:47.933Z,76.2
2022-12-09T06:14:48.220Z,76.39
2022-12-09T06:15:48.397Z,76.48
2022-12-09T06:16:48.089Z,76.29
2022-12-09T06:17:48.206Z,76.2
2022-12-09T06:18:48.590Z,76.2
2022-12-09T06:19:48.329Z,76.2
2022-12-09T06:20:48.088Z,76.48
2022-12-09T06:21:48.366Z,76.29
2022-12-09T06:22:48.047Z,76.01
2022-12-09T06:23:48.190Z,76.39
2022-12-09T06:24:51.107Z,76.39
2022-12-09T06:25:48.417Z,76.29
2022-12-09T06:26:48.245Z,76.29
2022-12-09T06:27:48.160Z,76.48
2022-12-09T06:28:48.268Z,75.81
2022-12-09T06:29:48.437Z,76.01
2022-12-09T06:30:48.439Z,76.01
2022-12-09T06:31:48.187Z,76.39
2022-12-09T06:32:48.622Z,76.01
2022-12-09T06:33:59.016Z,76.2
2022-12-09T06:34:48.113Z,76.01
2022-12-09T06:35:48.597Z,76.01
2022-12-09T06:36:48.608Z,76.01
2022-12-09T06:37:48.746Z,76.2
2022-12-09T06:38:48.375Z,76.2
2022-12-09T06:39:48.537Z,76.1
2022-12-09T06:40:48.544Z,76.1
2022-12-09T06:41:47.940Z,76.2
2022-12-09T06:42:48.218Z,76.1
2022-12-09T06:43:48.826Z,76.2
2022-12-09T06:44:48.505Z,76.2
2022-12-09T06:45:48.538Z,76.01
2022-12-09T06:46:48.125Z,75.81
2022-12-09T06:47:48.638Z,76.01
2022-12-09T06:48:48.948Z,76.01
2022-12-09T06:49:49.042Z,76.2
2022-12-09T06:50:48.559Z,76.2
2022-12-09T06:51:48.696Z,76.29
2022-12-09T06:52:48.538Z,76.01
2022-12-09T06:53:48.850Z,76.2
2022-12-09T06:54:48.720Z,75.81
2022-12-09T06:55:48.783Z,75.81
2022-12-09T06:56:48.440Z,76.29
2022-12-09T06:57:48.705Z,76.29
2022-12-09T06:58:49.063Z,76.29
2022-12-09T06:59:48.758Z,75.81
2022-12-09T07:00:48.307Z,76.01
2022-12-09T07:01:48.992Z,76.01
2022-12-09T07:02:48.736Z,76.01
2022-12-09T07:03:49.226Z,76.01
2022-12-09T07:04:48.930Z,76.01
2022-12-09T07:05:49.084Z,75.81
2022-12-09T07:06:48.857Z,75.81
2022-12-09T07:07:49.296Z,76.2
2022-12-09T07:08:49.306Z,76.2
2022-12-09T07:09:49.367Z,76.01
2022-12-09T07:10:56.497Z,76.29
2022-12-09T07:11:48.884Z,76.29
2022-12-09T07:12:48.873Z,75.91
2022-12-09T07:13:48.573Z,76.01
2022-12-09T07:14:49.117Z,76.2
2022-12-09T07:15:48.614Z,76.2
2022-12-09T07:16:49.001Z,76.01
2022-12-09T07:17:49.048Z,76.01
2022-12-09T07:18:48.787Z,76.1
2022-12-09T07:19:49.273Z,76.2
2022-12-09T07:20:49.397Z,76.1
2022-12-09T07:21:48.646Z,76.2
2022-12-09T07:22:49.008Z,76.1
2022-12-09T07:23:49.182Z,76.2
2022-12-09T07:24:48.753Z,76.2
2022-12-09T07:25:49.116Z,76.2
2022-12-09T07:26:49.299Z,76.1
2022-12-09T07:27:48.973Z,76.2
2022-12-09T07:28:49.422Z,76.1
2022-12-09T07:29:48.858Z,76.2
2022-12-09T07:30:48.797Z,76.1
2022-12-09T07:31:49.504Z,76.01
2022-12-09T07:32:49.380Z,76.01
2022-12-09T07:33:49.831Z,76.1
2022-12-09T07:34:49.435Z,76.1
2022-12-09T07:35:49.551Z,76.1
2022-12-09T07:36:49.488Z,75.91
2022-12-09T07:37:48.714Z,76.01
2022-12-09T07:38:49.004Z,76.1
2022-12-09T07:39:49.146Z,76.1
2022-12-09T07:40:49.142Z,76.2
2022-12-09T07:41:49.210Z,76.2
2022-12-09T07:42:49.522Z,76.01
2022-12-09T07:43:49.735Z,76.01
2022-12-09T07:44:49.124Z,76.2
2022-12-09T07:45:49.373Z,76.01
2022-12-09T07:46:49.997Z,76.01
2022-12-09T07:47:49.187Z,75.91
2022-12-09T07:48:50.208Z,76.01
2022-12-09T07:49:49.850Z,76.1
2022-12-09T07:50:49.144Z,75.91
2022-12-09T07:51:49.562Z,76.01
2022-12-09T07:52:49.345Z,76.01
2022-12-09T07:53:49.594Z,76.1
2022-12-09T07:54:49.105Z,76.1
2022-12-09T07:55:49.009Z,76.01
2022-12-09T07:56:50.012Z,76.01
2022-12-09T07:57:49.200Z,76.2
2022-12-09T07:58:49.533Z,75.91
2022-12-09T07:59:49.359Z,75.91
2022-12-09T08:00:49.194Z,76.01
2022-12-09T08:01:49.293Z,76.01
2022-12-09T08:02:49.583Z,76.01
2022-12-09T08:03:50.484Z,76.39
2022-12-09T08:04:49.426Z,75.91
2022-12-09T08:05:49.856Z,76.39
2022-12-09T08:06:50.082Z,76.1
2022-12-09T08:07:50.440Z,76.39
2022-12-09T08:08:50.191Z,76.39
2022-12-09T08:09:49.926Z,76.01
2022-12-09T08:10:50.120Z,76.39
2022-12-09T08:11:49.683Z,76.39
2022-12-09T08:12:49.986Z,76.29
2022-12-09T08:13:49.705Z,76.57
2022-12-09T08:14:49.476Z,76.29
2022-12-09T08:15:49.453Z,76.57
2022-12-09T08:16:49.991Z,76.29
2022-12-09T08:17:50.180Z,76.48
2022-12-09T08:18:49.708Z,76.2
2022-12-09T08:19:50.152Z,76.48
2022-12-09T08:20:50.269Z,76.29
2022-12-09T08:21:56.806Z,76.1
2022-12-09T08:22:49.990Z,76.2
2022-12-09T08:23:49.639Z,76.39
2022-12-09T08:24:50.260Z,75.91
2022-12-09T08:25:50.180Z,76.2
2022-12-09T08:26:49.934Z,76.29
2022-12-09T08:27:49.895Z,76.29
2022-12-09T08:28:50.221Z,76.2
2022-12-09T08:29:50.200Z,76.29
2022-12-09T08:30:50.230Z,76.39
2022-12-09T08:31:49.768Z,76.39
2022-12-09T08:32:50.277Z,76.2
2022-12-09T08:33:49.827Z,76.39
2022-12-09T08:34:49.711Z,76.39
2022-12-09T08:35:50.130Z,76.39
2022-12-09T08:36:50.193Z,76.39
2022-12-09T08:37:49.791Z,76.1
2022-12-09T08:38:50.145Z,76.39
2022-12-09T08:39:49.625Z,76.1
2022-12-09T08:40:50.005Z,76.57
2022-12-09T08:41:50.142Z,76.39
2022-12-09T08:42:50.684Z,76.29
2022-12-09T08:43:50.157Z,76.48
2022-12-09T08:44:50.030Z,76.39
2022-12-09T08:45:50.805Z,76.39
2022-12-09T08:46:51.018Z,76.48
2022-12-09T08:47:50.718Z,76.48
2022-12-09T08:48:50.584Z,76.57
2022-12-09T08:49:50.886Z,76.29
2022-12-09T08:50:49.970Z,76.29
2022-12-09T08:51:50.176Z,76.2
2022-12-09T08:52:50.611Z,76.39
2022-12-09T08:53:50.009Z,76.48
2022-12-09T08:54:50.009Z,76.39
2022-12-09T08:55:50.318Z,76.01
2022-12-09T08:56:50.715Z,76.1
2022-12-09T08:57:50.657Z,76.48
2022-12-09T08:58:50.143Z,76.86
2022-12-09T08:59:50.516Z,76.2
2022-12-09T09:00:50.303Z,76.39
2022-12-09T09:01:50.373Z,76.39
2022-12-09T09:02:50.929Z,76.76
2022-12-09T09:03:50.823Z,76.48
2022-12-09T09:04:50.905Z,76.57
2022-12-09T09:05:51.325Z,76.67
2022-12-09T09:06:50.915Z,76.57
2022-12-09T09:07:50.330Z,76.57
2022-12-09T09:08:50.442Z,76.76
2022-12-09T09:09:50.656Z,76.57
2022-12-09T09:10:50.663Z,76.57
2022-12-09T09:11:51.050Z,76.67
2022-12-09T09:12:50.642Z,76.57
2022-12-09T09:13:50.307Z,76.67
2022-12-09T09:14:50.350Z,76.57
2022-12-09T09:15:50.489Z,76.39
2022-12-09T09:16:51.064Z,76.48
2022-12-09T09:17:54.527Z,76.57
2022-12-09T09:18:51.111Z,76.57
2022-12-09T09:19:50.749Z,76.39
2022-12-09T09:20:51.000Z,76.39
2022-12-09T09:21:50.861Z,76.48
2022-12-09T09:22:51.016Z,76.57
2022-12-09T09:23:50.529Z,76.48
2022-12-09T09:24:51.210Z,76.67
2022-12-09T09:25:51.013Z,76.67
2022-12-09T09:26:50.967Z,76.95
2022-12-09T09:27:51.075Z,76.95
2022-12-09T09:28:50.427Z,76.76
2022-12-09T09:29:50.943Z,76.86
2022-12-09T09:30:50.641Z,76.57
2022-12-09T09:31:51.317Z,76.48
2022-12-09T09:32:51.132Z,76.76
2022-12-09T09:33:51.866Z,76.67
2022-12-09T09:34:50.973Z,76.95
2022-12-09T09:35:50.627Z,76.76
2022-12-09T09:36:51.099Z,76.95
2022-12-09T09:37:50.796Z,76.95
2022-12-09T09:38:50.940Z,76.86
2022-12-09T09:39:51.401Z,76.95
2022-12-09T09:40:51.292Z,76.67
2022-12-09T09:41:50.939Z,76.67
2022-12-09T09:42:51.035Z,77.05
2022-12-09T09:43:51.165Z,76.86
2022-12-09T09:44:51.459Z,77.14
2022-12-09T09:45:51.553Z,76.67
2022-12-09T09:46:51.636Z,76.67
2022-12-09T09:47:51.343Z,76.86
2022-12-09T09:48:51.344Z,77.14
2022-12-09T09:49:51.945Z,76.95
2022-12-09T09:50:51.128Z,76.86
2022-12-09T09:51:51.287Z,77.05
2022-12-09T09:52:51.303Z,76.86
2022-12-09T09:53:51.312Z,77.05
2022-12-09T09:54:51.321Z,76.95
2022-12-09T09:55:51.811Z,76.95
2022-12-09T09:56:51.097Z,76.86
2022-12-09T09:57:51.125Z,76.86
2022-12-09T09:58:51.831Z,77.05
2022-12-09T09:59:51.564Z,77.24
2022-12-09T10:00:51.569Z,76.76
2022-12-09T10:01:51.427Z,77.05
2022-12-09T10:02:52.325Z,76.95
2022-12-09T10:03:52.133Z,76.95
2022-12-09T10:04:51.882Z,76.95
2022-12-09T10:05:51.816Z,76.76
2022-12-09T10:06:52.044Z,76.76
2022-12-09T10:07:51.825Z,77.05
2022-12-09T10:08:51.467Z,76.86
2022-12-09T10:09:51.839Z,77.05
2022-12-09T10:10:51.852Z,76.76
2022-12-09T10:11:51.781Z,76.76
2022-12-09T10:12:52.249Z,76.76
2022-12-09T10:13:52.097Z,77.05
2022-12-09T10:14:51.578Z,77.05
2022-12-09T10:15:52.019Z,76.86
2022-12-09T10:16:51.854Z,76.86
2022-12-09T10:17:52.087Z,77.05
2022-12-09T10:18:51.639Z,76.86
2022-12-09T10:19:51.816Z,76.76
2022-12-09T10:20:52.100Z,77.05
2022-12-09T10:21:51.587Z,76.95
2022-12-09T10:22:51.432Z,76.48
2022-12-09T10:23:51.932Z,76.86
2022-12-09T10:24:51.896Z,76.86
2022-12-09T10:25:51.923Z,76.76
2022-12-09T10:26:51.415Z,76.95
2022-12-09T10:27:51.901Z,76.86
2022-12-09T10:28:51.511Z,76.86
2022-12-09T10:29:52.218Z,76.57
2022-12-09T10:30:51.995Z,76.67
2022-12-09T10:31:51.675Z,76.67
2022-12-09T10:32:51.935Z,76.67
2022-12-09T10:33:52.310Z,76.67
2022-12-09T10:34:52.390Z,76.67
2022-12-09T10:35:52.105Z,76.76
2022-12-09T10:36:51.941Z,76.67
2022-12-09T10:37:51.861Z,76.76
2022-12-09T10:38:52.433Z,76.67
2022-12-09T10:39:51.625Z,76.67
2022-12-09T10:40:51.733Z,76.67
2022-12-09T10:41:51.899Z,76.86
2022-12-09T10:42:51.751Z,76.67
2022-12-09T10:43:51.814Z,76.76
2022-12-09T10:44:51.900Z,76.67
2022-12-09T10:46:22.024Z,77.24
2022-12-09T10:46:52.436Z,76.48
2022-12-09T10:47:52.143Z,76.67
2022-12-09T10:48:53.029Z,76.67
2022-12-09T10:49:52.670Z,77.24
2022-12-09T10:50:52.351Z,77.24
2022-12-09T10:51:52.460Z,77.24
2022-12-09T10:52:52.068Z,77.33
2022-12-09T10:53:52.405Z,77.43
2022-12-09T10:54:52.966Z,77.33
2022-12-09T10:55:52.213Z,77.43
2022-12-09T10:56:53.271Z,77.33
2022-12-09T10:57:51.955Z,77.24
2022-12-09T10:58:52.233Z,77.05
2022-12-09T10:59:52.132Z,77.24
2022-12-09T11:00:51.796Z,77.24
2022-12-09T11:01:52.750Z,77.05
2022-12-09T11:02:52.396Z,76.95
2022-12-09T11:03:52.605Z,77.05
2022-12-09T11:04:52.513Z,77.24
2022-12-09T11:05:52.228Z,77.24
2022-12-09T11:07:00.016Z,77.05
2022-12-09T11:07:53.139Z,76.95
2022-12-09T11:08:52.461Z,77.14
2022-12-09T11:09:52.766Z,76.95
2022-12-09T11:10:52.730Z,77.05
2022-12-09T11:11:52.037Z,77.14
2022-12-09T11:12:52.636Z,76.95
2022-12-09T11:13:51.954Z,76.95
2022-12-09T11:14:52.512Z,77.05
2022-12-09T11:15:52.266Z,77.14
2022-12-09T11:16:52.152Z,77.05
2022-12-09T11:17:58.533Z,77.05
2022-12-09T11:18:53.014Z,77.05
2022-12-09T11:19:52.522Z,77.05
2022-12-09T11:20:52.800Z,77.24
2022-12-09T11:21:53.109Z,77.05
2022-12-09T11:22:52.050Z,77.24
2022-12-09T11:23:57.335Z,77.52
2022-12-09T11:24:52.816Z,77.43
2022-12-09T11:25:52.421Z,77.52
2022-12-09T11:26:52.260Z,77.33
2022-12-09T11:27:53.047Z,77.33
2022-12-09T11:28:52.440Z,77.24
2022-12-09T11:29:52.733Z,77.52
2022-12-09T11:31:32.556Z,77.52
2022-12-09T11:31:53.074Z,77.24
2022-12-09T11:32:52.855Z,77.24
2022-12-09T11:33:53.142Z,77.33
2022-12-09T11:34:52.865Z,77.24
2022-12-09T11:35:52.820Z,77.43
2022-12-09T11:36:52.251Z,77.43
2022-12-09T11:37:52.263Z,77.24
2022-12-09T11:38:52.279Z,77.24
2022-12-09T11:39:52.285Z,77.43
2022-12-09T11:40:52.346Z,76.95
2022-12-09T11:41:52.337Z,77.24
2022-12-09T11:42:52.326Z,77.62
2022-12-09T11:43:52.522Z,77.24
2022-12-09T11:44:52.355Z,77.52
2022-12-09T11:45:52.366Z,77.24
2022-12-09T11:46:52.448Z,77.43
2022-12-09T11:48:32.687Z,77.33
2022-12-09T11:48:52.413Z,77.52
2022-12-09T11:49:52.919Z,77.43
2022-12-09T11:50:52.178Z,77.33
2022-12-09T11:51:52.208Z,77.33
2022-12-09T11:52:52.471Z,77.43
2022-12-09T11:53:52.477Z,77.43
2022-12-09T11:54:52.502Z,77.33
2022-12-09T11:55:52.251Z,77.52
2022-12-09T11:56:52.576Z,77.52
2022-12-09T11:57:52.565Z,77.33
2022-12-09T11:58:52.560Z,77.33
2022-12-09T11:59:52.571Z,77.62
2022-12-09T12:00:52.330Z,77.52
2022-12-09T12:01:52.722Z,77.33
2022-12-09T12:02:52.694Z,77.33
2022-12-09T12:03:52.618Z,77.71
2022-12-09T12:04:52.648Z,77.62
2022-12-09T12:05:52.396Z,77.52
2022-12-09T12:06:52.408Z,77.52
2022-12-09T12:07:52.782Z,77.43
2022-12-09T12:08:52.953Z,77.52
2022-12-09T12:09:52.714Z,77.43
2022-12-09T12:10:52.722Z,77.24
2022-12-09T12:11:52.939Z,77.62
2022-12-09T12:12:52.777Z,77.43
2022-12-09T12:13:52.791Z,77.43
2022-12-09T12:14:52.784Z,77.43
2022-12-09T12:15:52.797Z,77.33
2022-12-09T12:16:52.549Z,77.62
2022-12-09T12:17:52.702Z,77.62
2022-12-09T12:18:52.580Z,77.43
2022-12-09T12:19:52.846Z,77.43
2022-12-09T12:20:52.869Z,77.52
2022-12-09T12:21:52.622Z,77.62
2022-12-09T12:22:57.294Z,77.71
2022-12-09T12:23:52.911Z,77.62
2022-12-09T12:24:52.931Z,77.62
2022-12-09T12:25:52.936Z,77.62
2022-12-09T12:26:52.691Z,77.33
2022-12-09T12:27:52.969Z,77.62
2022-12-09T12:29:04.047Z,77.43
2022-12-09T12:29:53.018Z,77.43
2022-12-09T12:30:53.004Z,77.52
2022-12-09T12:31:53.134Z,77.62
2022-12-09T12:34:39.036Z,77.71
2022-12-09T12:35:31.259Z,77.62
2022-12-09T12:36:31.244Z,77.52
2022-12-09T12:37:30.999Z,77.52
2022-12-09T12:38:31.015Z,77.52
2022-12-09T12:39:31.296Z,77.62
2022-12-09T12:40:31.312Z,77.62
2022-12-09T12:41:31.323Z,77.52
2022-12-09T12:42:31.070Z,77.43
2022-12-09T12:43:31.344Z,77.62
2022-12-09T12:44:31.523Z,77.33
2022-12-09T12:45:31.565Z,77.62
2022-12-09T12:46:31.531Z,77.52
2022-12-09T12:47:31.160Z,77.52
2022-12-09T12:48:31.516Z,77.52
2022-12-09T12:49:31.430Z,77.62
2022-12-09T12:50:31.864Z,77.52
2022-12-09T12:51:31.454Z,77.43
2022-12-09T12:53:01.209Z,77.43
2022-12-09T12:53:31.491Z,77.52
2022-12-09T12:54:31.512Z,77.24
2022-12-09T12:55:31.517Z,77.33
2022-12-09T12:56:31.287Z,77.24
2022-12-09T12:57:31.550Z,77.24